sensor_id;sensor_type;location;lat;lon;timestamp;P1;durP1;ratioP1;P2;durP2;ratioP2
7585;SDS011;12459;42.646;23.292;2023-11-21T00:09:43;6.83;;;6.43;;
7585;SDS011;12459;42.646;23.292;2023-11-21T00:24:45;6.17;;;5.77;;
7585;SDS011;12459;42.646;23.292;2023-11-21T00:39:47;6.53;;;6.13;;
7585;SDS011;12459;42.646;23.292;2023-11-21T00:54:49;8.03;;;7.53;;
7585;SDS011;12459;42.646;23.292;2023-11-21T01:09:51;5.87;;;5.47;;
7585;SDS011;12459;42.646;23.292;2023-11-21T01:24:53;5.47;;;5.07;;
7585;SDS011;12459;42.646;23.292;2023-11-21T01:39:55;6.17;;;5.77;;
7585;SDS011;12459;42.646;23.292;2023-11-21T01:54:57;6.03;;;5.63;;
7585;SDS011;12459;42.646;23.292;2023-11-21T02:10:00;6.43;;;6.03;;
7585;SDS011;12459;42.646;23.292;2023-11-21T02:25:03;6.37;;;5.97;;
7585;SDS011;12459;42.646;23.292;2023-11-21T02:40:05;5.50;;;5.10;;
7585;SDS011;12459;42.646;23.292;2023-11-21T02:55:11;5.77;;;5.37;;
7585;SDS011;12459;42.646;23.292;2023-11-21T03:10:12;5.60;;;5.20;;
7585;SDS011;12459;42.646;23.292;2023-11-21T03:25:14;5.17;;;4.87;;
7585;SDS011;12459;42.646;23.292;2023-11-21T03:40:18;4.63;;;4.33;;
7585;SDS011;12459;42.646;23.292;2023-11-21T03:55:21;5.23;;;4.90;;
7585;SDS011;12459;42.646;23.292;2023-11-21T04:10:25;5.23;;;4.87;;
7585;SDS011;12459;42.646;23.292;2023-11-21T04:25:27;5.30;;;4.90;;
7585;SDS011;12459;42.646;23.292;2023-11-21T04:40:29;4.90;;;4.60;;
7585;SDS011;12459;42.646;23.292;2023-11-21T04:55:31;5.43;;;5.03;;
7585;SDS011;12459;42.646;23.292;2023-11-21T05:10:33;5.27;;;4.90;;
7585;SDS011;12459;42.646;23.292;2023-11-21T05:25:35;5.67;;;5.27;;
7585;SDS011;12459;42.646;23.292;2023-11-21T05:40:41;5.07;;;4.77;;
7585;SDS011;12459;42.646;23.292;2023-11-21T05:55:43;5.63;;;5.23;;
7585;SDS011;12459;42.646;23.292;2023-11-21T06:10:45;5.83;;;5.43;;
7585;SDS011;12459;42.646;23.292;2023-11-21T06:25:50;6.30;;;5.90;;
7585;SDS011;12459;42.646;23.292;2023-11-21T06:40:52;7.10;;;6.70;;
7585;SDS011;12459;42.646;23.292;2023-11-21T06:55:54;6.93;;;6.53;;
7585;SDS011;12459;42.646;23.292;2023-11-21T07:10:56;6.67;;;6.27;;
7585;SDS011;12459;42.646;23.292;2023-11-21T07:25:58;6.63;;;6.23;;
7585;SDS011;12459;42.646;23.292;2023-11-21T07:41:00;7.53;;;7.13;;
7585;SDS011;12459;42.646;23.292;2023-11-21T07:56:06;7.17;;;6.77;;
7585;SDS011;12459;42.646;23.292;2023-11-21T08:11:11;6.83;;;6.43;;
7585;SDS011;12459;42.646;23.292;2023-11-21T08:26:15;8.40;;;7.90;;
7585;SDS011;12459;42.646;23.292;2023-11-21T08:41:18;8.10;;;7.60;;
7585;SDS011;12459;42.646;23.292;2023-11-21T08:56:22;9.63;;;9.13;;
7585;SDS011;12459;42.646;23.292;2023-11-21T09:11:24;9.30;;;8.80;;
7585;SDS011;12459;42.646;23.292;2023-11-21T09:26:27;9.97;;;9.40;;
7585;SDS011;12459;42.646;23.292;2023-11-21T09:41:40;10.23;;;9.63;;
7585;SDS011;12459;42.646;23.292;2023-11-21T10:11:49;11.97;;;11.37;;
7585;SDS011;12459;42.646;23.292;2023-11-21T10:26:52;12.73;;;12.03;;
7585;SDS011;12459;42.646;23.292;2023-11-21T10:41:55;13.17;;;12.47;;
7585;SDS011;12459;42.646;23.292;2023-11-21T10:56:58;13.00;;;12.30;;
7585;SDS011;12459;42.646;23.292;2023-11-21T11:12:02;12.87;;;12.17;;
7585;SDS011;12459;42.646;23.292;2023-11-21T11:42:32;13.73;;;13.03;;
7585;SDS011;12459;42.646;23.292;2023-11-21T11:57:34;14.43;;;13.73;;
7585;SDS011;12459;42.646;23.292;2023-11-21T12:12:36;13.33;;;12.63;;
7585;SDS011;12459;42.646;23.292;2023-11-21T12:27:40;13.07;;;12.37;;
7585;SDS011;12459;42.646;23.292;2023-11-21T12:42:42;14.97;;;14.17;;
7585;SDS011;12459;42.646;23.292;2023-11-21T12:57:50;12.70;;;12.00;;
7585;SDS011;12459;42.646;23.292;2023-11-21T13:12:59;13.60;;;12.90;;
7585;SDS011;12459;42.646;23.292;2023-11-21T13:28:01;13.87;;;13.17;;
7585;SDS011;12459;42.646;23.292;2023-11-21T13:43:03;11.97;;;11.37;;
7585;SDS011;12459;42.646;23.292;2023-11-21T13:58:06;13.13;;;12.43;;
7585;SDS011;12459;42.646;23.292;2023-11-21T14:13:12;14.80;;;14.07;;
7585;SDS011;12459;42.646;23.292;2023-11-21T14:28:14;11.43;;;10.83;;
7585;SDS011;12459;42.646;23.292;2023-11-21T14:43:16;12.73;;;12.03;;
7585;SDS011;12459;42.646;23.292;2023-11-21T14:58:20;12.97;;;12.27;;
7585;SDS011;12459;42.646;23.292;2023-11-21T15:13:28;11.70;;;11.10;;
7585;SDS011;12459;42.646;23.292;2023-11-21T15:28:31;11.47;;;10.87;;
7585;SDS011;12459;42.646;23.292;2023-11-21T15:43:34;11.73;;;11.13;;
7585;SDS011;12459;42.646;23.292;2023-11-21T15:58:35;11.60;;;11.00;;
7585;SDS011;12459;42.646;23.292;2023-11-21T16:13:38;11.67;;;11.07;;
7585;SDS011;12459;42.646;23.292;2023-11-21T16:28:42;11.03;;;10.43;;
7585;SDS011;12459;42.646;23.292;2023-11-21T16:43:44;10.10;;;9.50;;
7585;SDS011;12459;42.646;23.292;2023-11-21T16:58:45;9.10;;;8.60;;
7585;SDS011;12459;42.646;23.292;2023-11-21T17:13:47;9.07;;;8.57;;
7585;SDS011;12459;42.646;23.292;2023-11-21T17:28:49;9.70;;;9.20;;
7585;SDS011;12459;42.646;23.292;2023-11-21T17:43:51;9.13;;;8.63;;
7585;SDS011;12459;42.646;23.292;2023-11-21T17:58:53;8.10;;;7.60;;
7585;SDS011;12459;42.646;23.292;2023-11-21T18:13:55;9.70;;;9.20;;
7585;SDS011;12459;42.646;23.292;2023-11-21T18:28:59;8.93;;;8.43;;
7585;SDS011;12459;42.646;23.292;2023-11-21T18:44:01;8.77;;;8.27;;
7585;SDS011;12459;42.646;23.292;2023-11-21T18:59:04;8.60;;;8.10;;
7585;SDS011;12459;42.646;23.292;2023-11-21T19:14:09;8.03;;;7.53;;
7585;SDS011;12459;42.646;23.292;2023-11-21T19:29:11;8.53;;;8.03;;
7585;SDS011;12459;42.646;23.292;2023-11-21T19:44:13;8.43;;;7.93;;
7585;SDS011;12459;42.646;23.292;2023-11-21T19:59:15;8.67;;;8.17;;
7585;SDS011;12459;42.646;23.292;2023-11-21T20:14:18;8.43;;;7.93;;
7585;SDS011;12459;42.646;23.292;2023-11-21T20:29:20;9.30;;;8.80;;
7585;SDS011;12459;42.646;23.292;2023-11-21T20:44:24;8.97;;;8.47;;
7585;SDS011;12459;42.646;23.292;2023-11-21T20:59:26;9.17;;;8.67;;
7585;SDS011;12459;42.646;23.292;2023-11-21T21:14:28;8.60;;;8.10;;
7585;SDS011;12459;42.646;23.292;2023-11-21T21:29:31;9.20;;;8.70;;
7585;SDS011;12459;42.646;23.292;2023-11-21T21:44:32;8.50;;;8.00;;
7585;SDS011;12459;42.646;23.292;2023-11-21T21:59:35;8.63;;;8.13;;
7585;SDS011;12459;42.646;23.292;2023-11-21T22:14:39;9.47;;;8.97;;
7585;SDS011;12459;42.646;23.292;2023-11-21T22:29:41;9.53;;;9.03;;
7585;SDS011;12459;42.646;23.292;2023-11-21T22:44:43;9.50;;;9.00;;
7585;SDS011;12459;42.646;23.292;2023-11-21T22:59:45;8.03;;;7.53;;
7585;SDS011;12459;42.646;23.292;2023-11-21T23:14:47;9.13;;;8.63;;
7585;SDS011;12459;42.646;23.292;2023-11-21T23:29:48;9.33;;;8.83;;
7585;SDS011;12459;42.646;23.292;2023-11-21T23:44:54;9.17;;;8.67;;
7585;SDS011;12459;42.646;23.292;2023-11-21T23:59:56;8.93;;;8.43;;
